sensor_id;sensor_type;location;lat;lon;timestamp;P1;durP1;ratioP1;P2;durP2;ratioP2
74821;SDS011;63353;48.702;8.884;2023-01-25T00:02:14;75.23;;;22.60;;
74821;SDS011;63353;48.702;8.884;2023-01-25T00:04:43;89.13;;;23.30;;
74821;SDS011;63353;48.702;8.884;2023-01-25T00:07:15;97.43;;;22.03;;
74821;SDS011;63353;48.702;8.884;2023-01-25T00:09:43;74.50;;;21.33;;
74821;SDS011;63353;48.702;8.884;2023-01-25T00:12:12;81.90;;;21.77;;
74821;SDS011;63353;48.702;8.884;2023-01-25T00:14:38;62.67;;;20.97;;
74821;SDS011;63353;48.702;8.884;2023-01-25T00:17:09;134.87;;;22.63;;
74821;SDS011;63353;48.702;8.884;2023-01-25T00:19:38;89.23;;;21.97;;
74821;SDS011;63353;48.702;8.884;2023-01-25T00:22:12;139.53;;;22.27;;
74821;SDS011;63353;48.702;8.884;2023-01-25T00:24:38;111.90;;;23.03;;
74821;SDS011;63353;48.702;8.884;2023-01-25T00:27:09;289.27;;;32.83;;
74821;SDS011;63353;48.702;8.884;2023-01-25T00:29:44;176.33;;;26.47;;
74821;SDS011;63353;48.702;8.884;2023-01-25T00:39:42;230.37;;;25.47;;
74821;SDS011;63353;48.702;8.884;2023-01-25T00:42:11;88.83;;;23.23;;
74821;SDS011;63353;48.702;8.884;2023-01-25T00:44:39;124.83;;;23.40;;
74821;SDS011;63353;48.702;8.884;2023-01-25T00:47:04;202.50;;;25.40;;
74821;SDS011;63353;48.702;8.884;2023-01-25T00:49:34;310.20;;;29.63;;
74821;SDS011;63353;48.702;8.884;2023-01-25T00:51:59;322.17;;;29.50;;
74821;SDS011;63353;48.702;8.884;2023-01-25T00:54:28;236.50;;;25.47;;
74821;SDS011;63353;48.702;8.884;2023-01-25T00:57:00;320.20;;;30.23;;
74821;SDS011;63353;48.702;8.884;2023-01-25T00:59:25;313.67;;;28.60;;
74821;SDS011;63353;48.702;8.884;2023-01-25T01:01:51;373.43;;;30.93;;
74821;SDS011;63353;48.702;8.884;2023-01-25T01:04:18;294.27;;;29.17;;
74821;SDS011;63353;48.702;8.884;2023-01-25T01:06:47;264.70;;;28.10;;
74821;SDS011;63353;48.702;8.884;2023-01-25T01:09:14;310.83;;;28.17;;
74821;SDS011;63353;48.702;8.884;2023-01-25T01:11:41;250.30;;;27.50;;
74821;SDS011;63353;48.702;8.884;2023-01-25T01:14:09;365.43;;;31.83;;
74821;SDS011;63353;48.702;8.884;2023-01-25T01:16:38;309.63;;;31.40;;
74821;SDS011;63353;48.702;8.884;2023-01-25T01:19:04;283.67;;;28.77;;
74821;SDS011;63353;48.702;8.884;2023-01-25T01:21:36;267.07;;;27.27;;
74821;SDS011;63353;48.702;8.884;2023-01-25T01:24:05;279.17;;;28.60;;
74821;SDS011;63353;48.702;8.884;2023-01-25T01:26:31;232.17;;;26.93;;
74821;SDS011;63353;48.702;8.884;2023-01-25T01:29:09;412.60;;;33.80;;
74821;SDS011;63353;48.702;8.884;2023-01-25T01:31:34;358.97;;;31.47;;
74821;SDS011;63353;48.702;8.884;2023-01-25T01:34:00;377.30;;;33.03;;
74821;SDS011;63353;48.702;8.884;2023-01-25T01:36:26;294.67;;;30.47;;
74821;SDS011;63353;48.702;8.884;2023-01-25T01:39:02;237.57;;;27.87;;
74821;SDS011;63353;48.702;8.884;2023-01-25T01:41:31;269.80;;;28.63;;
74821;SDS011;63353;48.702;8.884;2023-01-25T01:44:03;179.33;;;26.90;;
74821;SDS011;63353;48.702;8.884;2023-01-25T01:46:38;172.53;;;25.10;;
74821;SDS011;63353;48.702;8.884;2023-01-25T01:49:15;215.77;;;26.63;;
74821;SDS011;63353;48.702;8.884;2023-01-25T01:54:47;124.10;;;25.90;;
74821;SDS011;63353;48.702;8.884;2023-01-25T01:57:35;118.50;;;24.33;;
74821;SDS011;63353;48.702;8.884;2023-01-25T02:00:15;122.23;;;23.10;;
74821;SDS011;63353;48.702;8.884;2023-01-25T02:02:44;85.63;;;24.10;;
74821;SDS011;63353;48.702;8.884;2023-01-25T02:05:19;106.93;;;23.97;;
74821;SDS011;63353;48.702;8.884;2023-01-25T02:08:13;96.73;;;22.00;;
74821;SDS011;63353;48.702;8.884;2023-01-25T02:10:40;62.30;;;22.33;;
74821;SDS011;63353;48.702;8.884;2023-01-25T02:13:08;71.07;;;21.77;;
74821;SDS011;63353;48.702;8.884;2023-01-25T02:15:47;76.33;;;23.30;;
74821;SDS011;63353;48.702;8.884;2023-01-25T02:18:15;79.07;;;21.77;;
74821;SDS011;63353;48.702;8.884;2023-01-25T02:21:01;76.73;;;21.53;;
74821;SDS011;63353;48.702;8.884;2023-01-25T02:23:44;70.80;;;21.30;;
74821;SDS011;63353;48.702;8.884;2023-01-25T02:26:17;67.10;;;20.53;;
74821;SDS011;63353;48.702;8.884;2023-01-25T02:28:49;81.73;;;22.03;;
74821;SDS011;63353;48.702;8.884;2023-01-25T02:34:09;153.90;;;23.97;;
74821;SDS011;63353;48.702;8.884;2023-01-25T02:36:38;70.83;;;22.73;;
74821;SDS011;63353;48.702;8.884;2023-01-25T02:39:13;150.10;;;25.00;;
74821;SDS011;63353;48.702;8.884;2023-01-25T02:41:42;167.77;;;24.47;;
74821;SDS011;63353;48.702;8.884;2023-01-25T02:46:59;162.10;;;24.97;;
74821;SDS011;63353;48.702;8.884;2023-01-25T02:52:19;315.43;;;30.77;;
74821;SDS011;63353;48.702;8.884;2023-01-25T02:54:44;319.13;;;31.57;;
74821;SDS011;63353;48.702;8.884;2023-01-25T02:57:13;333.70;;;31.17;;
74821;SDS011;63353;48.702;8.884;2023-01-25T02:59:39;205.87;;;27.97;;
74821;SDS011;63353;48.702;8.884;2023-01-25T03:02:10;216.83;;;26.47;;
74821;SDS011;63353;48.702;8.884;2023-01-25T03:04:41;339.10;;;31.47;;
74821;SDS011;63353;48.702;8.884;2023-01-25T03:07:07;398.93;;;35.17;;
74821;SDS011;63353;48.702;8.884;2023-01-25T03:09:41;348.90;;;31.50;;
74821;SDS011;63353;48.702;8.884;2023-01-25T03:12:13;359.83;;;29.63;;
74821;SDS011;63353;48.702;8.884;2023-01-25T03:14:38;370.00;;;33.57;;
74821;SDS011;63353;48.702;8.884;2023-01-25T03:17:08;337.60;;;31.30;;
74821;SDS011;63353;48.702;8.884;2023-01-25T03:19:34;210.37;;;28.57;;
74821;SDS011;63353;48.702;8.884;2023-01-25T03:21:59;205.07;;;27.90;;
74821;SDS011;63353;48.702;8.884;2023-01-25T03:24:31;180.73;;;26.13;;
74821;SDS011;63353;48.702;8.884;2023-01-25T03:26:57;172.37;;;26.30;;
74821;SDS011;63353;48.702;8.884;2023-01-25T03:29:42;199.47;;;26.83;;
74821;SDS011;63353;48.702;8.884;2023-01-25T03:32:08;126.87;;;23.83;;
74821;SDS011;63353;48.702;8.884;2023-01-25T03:34:43;92.77;;;23.37;;
74821;SDS011;63353;48.702;8.884;2023-01-25T03:37:11;71.90;;;21.33;;
74821;SDS011;63353;48.702;8.884;2023-01-25T03:39:37;67.13;;;21.90;;
74821;SDS011;63353;48.702;8.884;2023-01-25T03:42:08;84.27;;;22.40;;
74821;SDS011;63353;48.702;8.884;2023-01-25T03:44:37;75.77;;;21.80;;
74821;SDS011;63353;48.702;8.884;2023-01-25T03:47:08;73.47;;;21.90;;
74821;SDS011;63353;48.702;8.884;2023-01-25T03:49:40;73.80;;;21.20;;
74821;SDS011;63353;48.702;8.884;2023-01-25T03:52:12;93.37;;;22.63;;
74821;SDS011;63353;48.702;8.884;2023-01-25T03:54:38;80.13;;;21.23;;
74821;SDS011;63353;48.702;8.884;2023-01-25T03:57:03;82.20;;;21.43;;
74821;SDS011;63353;48.702;8.884;2023-01-25T03:59:29;87.17;;;20.40;;
74821;SDS011;63353;48.702;8.884;2023-01-25T04:02:01;57.83;;;19.53;;
74821;SDS011;63353;48.702;8.884;2023-01-25T04:04:26;58.87;;;19.20;;
74821;SDS011;63353;48.702;8.884;2023-01-25T04:06:52;73.10;;;19.83;;
74821;SDS011;63353;48.702;8.884;2023-01-25T04:09:21;56.93;;;19.00;;
74821;SDS011;63353;48.702;8.884;2023-01-25T04:11:49;59.00;;;18.97;;
74821;SDS011;63353;48.702;8.884;2023-01-25T04:14:16;62.30;;;19.17;;
74821;SDS011;63353;48.702;8.884;2023-01-25T04:16:41;56.73;;;18.57;;
74821;SDS011;63353;48.702;8.884;2023-01-25T04:19:13;55.83;;;19.00;;
74821;SDS011;63353;48.702;8.884;2023-01-25T04:21:39;51.23;;;19.20;;
74821;SDS011;63353;48.702;8.884;2023-01-25T04:24:10;68.27;;;20.00;;
74821;SDS011;63353;48.702;8.884;2023-01-25T04:26:36;82.27;;;21.17;;
74821;SDS011;63353;48.702;8.884;2023-01-25T04:29:02;179.70;;;24.00;;
74821;SDS011;63353;48.702;8.884;2023-01-25T04:31:27;128.90;;;22.10;;
74821;SDS011;63353;48.702;8.884;2023-01-25T04:33:54;195.80;;;26.07;;
74821;SDS011;63353;48.702;8.884;2023-01-25T04:36:28;195.60;;;25.10;;
74821;SDS011;63353;48.702;8.884;2023-01-25T04:39:06;191.97;;;24.40;;
74821;SDS011;63353;48.702;8.884;2023-01-25T04:41:32;108.17;;;22.67;;
74821;SDS011;63353;48.702;8.884;2023-01-25T04:44:00;61.97;;;19.97;;
74821;SDS011;63353;48.702;8.884;2023-01-25T04:46:26;65.30;;;19.93;;
74821;SDS011;63353;48.702;8.884;2023-01-25T04:48:54;70.90;;;19.83;;
74821;SDS011;63353;48.702;8.884;2023-01-25T04:51:29;63.83;;;20.17;;
74821;SDS011;63353;48.702;8.884;2023-01-25T04:54:01;53.67;;;18.07;;
74821;SDS011;63353;48.702;8.884;2023-01-25T04:56:30;57.87;;;19.30;;
74821;SDS011;63353;48.702;8.884;2023-01-25T04:58:58;61.73;;;19.97;;
74821;SDS011;63353;48.702;8.884;2023-01-25T05:01:33;68.90;;;18.57;;
74821;SDS011;63353;48.702;8.884;2023-01-25T05:03:59;78.33;;;20.13;;
74821;SDS011;63353;48.702;8.884;2023-01-25T05:06:24;72.17;;;18.93;;
74821;SDS011;63353;48.702;8.884;2023-01-25T05:08:50;53.80;;;18.37;;
74821;SDS011;63353;48.702;8.884;2023-01-25T05:11:16;49.23;;;17.63;;
74821;SDS011;63353;48.702;8.884;2023-01-25T05:13:41;48.93;;;18.57;;
74821;SDS011;63353;48.702;8.884;2023-01-25T05:16:09;52.10;;;18.97;;
74821;SDS011;63353;48.702;8.884;2023-01-25T05:18:38;51.97;;;18.33;;
74821;SDS011;63353;48.702;8.884;2023-01-25T05:21:04;55.03;;;18.20;;
74821;SDS011;63353;48.702;8.884;2023-01-25T05:23:52;61.97;;;18.57;;
74821;SDS011;63353;48.702;8.884;2023-01-25T05:26:33;50.27;;;17.40;;
74821;SDS011;63353;48.702;8.884;2023-01-25T05:29:17;57.37;;;18.83;;
74821;SDS011;63353;48.702;8.884;2023-01-25T05:31:42;53.30;;;16.97;;
74821;SDS011;63353;48.702;8.884;2023-01-25T05:34:20;47.53;;;17.53;;
74821;SDS011;63353;48.702;8.884;2023-01-25T05:36:49;50.87;;;18.40;;
74821;SDS011;63353;48.702;8.884;2023-01-25T05:39:15;51.47;;;17.67;;
74821;SDS011;63353;48.702;8.884;2023-01-25T05:41:50;44.87;;;18.33;;
74821;SDS011;63353;48.702;8.884;2023-01-25T05:44:19;48.77;;;17.37;;
74821;SDS011;63353;48.702;8.884;2023-01-25T05:46:48;48.43;;;17.13;;
74821;SDS011;63353;48.702;8.884;2023-01-25T05:49:14;46.13;;;18.67;;
74821;SDS011;63353;48.702;8.884;2023-01-25T05:51:40;50.60;;;18.00;;
74821;SDS011;63353;48.702;8.884;2023-01-25T05:54:08;45.30;;;17.27;;
74821;SDS011;63353;48.702;8.884;2023-01-25T05:56:39;48.13;;;17.37;;
74821;SDS011;63353;48.702;8.884;2023-01-25T05:59:04;42.67;;;16.63;;
74821;SDS011;63353;48.702;8.884;2023-01-25T06:01:30;41.60;;;15.73;;
74821;SDS011;63353;48.702;8.884;2023-01-25T06:03:56;41.60;;;18.07;;
74821;SDS011;63353;48.702;8.884;2023-01-25T06:06:25;45.03;;;16.73;;
74821;SDS011;63353;48.702;8.884;2023-01-25T06:08:50;48.17;;;17.53;;
74821;SDS011;63353;48.702;8.884;2023-01-25T06:11:17;50.30;;;17.07;;
74821;SDS011;63353;48.702;8.884;2023-01-25T06:13:50;43.13;;;17.20;;
74821;SDS011;63353;48.702;8.884;2023-01-25T06:16:28;38.40;;;16.17;;
74821;SDS011;63353;48.702;8.884;2023-01-25T06:18:54;43.00;;;16.67;;
74821;SDS011;63353;48.702;8.884;2023-01-25T06:21:20;43.70;;;21.83;;
74821;SDS011;63353;48.702;8.884;2023-01-25T06:23:45;71.87;;;35.80;;
74821;SDS011;63353;48.702;8.884;2023-01-25T06:26:20;52.90;;;25.57;;
74821;SDS011;63353;48.702;8.884;2023-01-25T06:28:52;42.73;;;17.90;;
74821;SDS011;63353;48.702;8.884;2023-01-25T06:31:17;42.27;;;19.93;;
74821;SDS011;63353;48.702;8.884;2023-01-25T06:33:46;45.03;;;20.10;;
74821;SDS011;63353;48.702;8.884;2023-01-25T06:36:14;45.33;;;19.40;;
74821;SDS011;63353;48.702;8.884;2023-01-25T06:38:48;47.57;;;19.93;;
74821;SDS011;63353;48.702;8.884;2023-01-25T06:41:15;42.53;;;17.20;;
74821;SDS011;63353;48.702;8.884;2023-01-25T06:43:49;41.07;;;19.27;;
74821;SDS011;63353;48.702;8.884;2023-01-25T06:46:15;38.63;;;16.27;;
74821;SDS011;63353;48.702;8.884;2023-01-25T06:48:40;36.30;;;16.57;;
74821;SDS011;63353;48.702;8.884;2023-01-25T06:51:10;35.37;;;16.93;;
74821;SDS011;63353;48.702;8.884;2023-01-25T06:53:38;43.07;;;17.37;;
74821;SDS011;63353;48.702;8.884;2023-01-25T06:56:09;36.43;;;16.73;;
74821;SDS011;63353;48.702;8.884;2023-01-25T06:58:37;38.77;;;17.10;;
74821;SDS011;63353;48.702;8.884;2023-01-25T07:01:09;35.23;;;16.53;;
74821;SDS011;63353;48.702;8.884;2023-01-25T07:03:39;38.00;;;16.93;;
74821;SDS011;63353;48.702;8.884;2023-01-25T07:06:06;35.03;;;16.97;;
74821;SDS011;63353;48.702;8.884;2023-01-25T07:08:37;41.53;;;17.83;;
74821;SDS011;63353;48.702;8.884;2023-01-25T07:11:07;40.33;;;18.00;;
74821;SDS011;63353;48.702;8.884;2023-01-25T07:13:37;38.90;;;17.77;;
74821;SDS011;63353;48.702;8.884;2023-01-25T07:16:05;36.73;;;16.07;;
74821;SDS011;63353;48.702;8.884;2023-01-25T07:18:32;37.03;;;16.63;;
74821;SDS011;63353;48.702;8.884;2023-01-25T07:21:19;34.03;;;15.43;;
74821;SDS011;63353;48.702;8.884;2023-01-25T07:23:50;33.97;;;16.10;;
74821;SDS011;63353;48.702;8.884;2023-01-25T07:26:16;34.17;;;16.03;;
74821;SDS011;63353;48.702;8.884;2023-01-25T07:28:44;37.60;;;16.77;;
74821;SDS011;63353;48.702;8.884;2023-01-25T07:31:11;39.80;;;16.33;;
74821;SDS011;63353;48.702;8.884;2023-01-25T07:33:46;34.87;;;16.53;;
74821;SDS011;63353;48.702;8.884;2023-01-25T07:36:39;33.23;;;15.43;;
74821;SDS011;63353;48.702;8.884;2023-01-25T07:39:05;34.17;;;15.50;;
74821;SDS011;63353;48.702;8.884;2023-01-25T07:41:44;34.90;;;15.73;;
74821;SDS011;63353;48.702;8.884;2023-01-25T07:44:12;35.47;;;15.80;;
74821;SDS011;63353;48.702;8.884;2023-01-25T07:46:41;37.27;;;16.13;;
74821;SDS011;63353;48.702;8.884;2023-01-25T07:49:15;33.27;;;15.43;;
74821;SDS011;63353;48.702;8.884;2023-01-25T07:51:46;32.77;;;15.40;;
74821;SDS011;63353;48.702;8.884;2023-01-25T07:54:12;34.77;;;16.40;;
74821;SDS011;63353;48.702;8.884;2023-01-25T07:56:38;32.53;;;15.93;;
74821;SDS011;63353;48.702;8.884;2023-01-25T07:59:08;35.47;;;15.60;;
74821;SDS011;63353;48.702;8.884;2023-01-25T08:01:40;35.17;;;16.20;;
74821;SDS011;63353;48.702;8.884;2023-01-25T08:04:06;34.43;;;16.03;;
74821;SDS011;63353;48.702;8.884;2023-01-25T08:06:36;37.10;;;17.37;;
74821;SDS011;63353;48.702;8.884;2023-01-25T08:09:17;39.90;;;18.77;;
74821;SDS011;63353;48.702;8.884;2023-01-25T08:11:46;42.90;;;21.53;;
74821;SDS011;63353;48.702;8.884;2023-01-25T08:14:13;42.47;;;21.00;;
74821;SDS011;63353;48.702;8.884;2023-01-25T08:16:48;35.93;;;17.27;;
74821;SDS011;63353;48.702;8.884;2023-01-25T08:19:17;39.67;;;18.30;;
74821;SDS011;63353;48.702;8.884;2023-01-25T08:21:44;39.07;;;18.03;;
74821;SDS011;63353;48.702;8.884;2023-01-25T08:24:16;36.17;;;17.27;;
74821;SDS011;63353;48.702;8.884;2023-01-25T08:26:44;36.17;;;17.57;;
74821;SDS011;63353;48.702;8.884;2023-01-25T08:29:13;33.13;;;16.43;;
74821;SDS011;63353;48.702;8.884;2023-01-25T08:31:40;32.23;;;16.23;;
74821;SDS011;63353;48.702;8.884;2023-01-25T08:34:08;32.73;;;15.93;;
74821;SDS011;63353;48.702;8.884;2023-01-25T08:36:34;41.67;;;21.40;;
74821;SDS011;63353;48.702;8.884;2023-01-25T08:39:01;41.10;;;23.97;;
74821;SDS011;63353;48.702;8.884;2023-01-25T08:41:31;39.27;;;20.83;;
74821;SDS011;63353;48.702;8.884;2023-01-25T08:44:01;36.33;;;17.73;;
74821;SDS011;63353;48.702;8.884;2023-01-25T08:46:28;32.37;;;17.07;;
74821;SDS011;63353;48.702;8.884;2023-01-25T08:49:00;41.37;;;22.07;;
74821;SDS011;63353;48.702;8.884;2023-01-25T08:51:30;34.63;;;17.80;;
74821;SDS011;63353;48.702;8.884;2023-01-25T08:54:00;39.83;;;20.03;;
74821;SDS011;63353;48.702;8.884;2023-01-25T08:56:35;32.60;;;16.50;;
74821;SDS011;63353;48.702;8.884;2023-01-25T08:59:01;30.03;;;14.97;;
74821;SDS011;63353;48.702;8.884;2023-01-25T09:01:30;37.97;;;19.13;;
74821;SDS011;63353;48.702;8.884;2023-01-25T09:03:58;33.47;;;16.63;;
74821;SDS011;63353;48.702;8.884;2023-01-25T09:06:27;30.27;;;15.37;;
74821;SDS011;63353;48.702;8.884;2023-01-25T09:08:57;31.33;;;15.87;;
74821;SDS011;63353;48.702;8.884;2023-01-25T09:11:31;31.97;;;15.80;;
74821;SDS011;63353;48.702;8.884;2023-01-25T09:14:04;29.03;;;15.43;;
74821;SDS011;63353;48.702;8.884;2023-01-25T09:16:33;33.93;;;15.17;;
74821;SDS011;63353;48.702;8.884;2023-01-25T09:19:00;27.33;;;14.20;;
74821;SDS011;63353;48.702;8.884;2023-01-25T09:21:27;29.13;;;15.27;;
74821;SDS011;63353;48.702;8.884;2023-01-25T09:23:53;30.30;;;14.90;;
74821;SDS011;63353;48.702;8.884;2023-01-25T09:26:28;31.03;;;15.80;;
74821;SDS011;63353;48.702;8.884;2023-01-25T09:28:57;28.07;;;13.77;;
74821;SDS011;63353;48.702;8.884;2023-01-25T09:31:34;27.33;;;14.20;;
74821;SDS011;63353;48.702;8.884;2023-01-25T09:34:01;32.47;;;15.17;;
74821;SDS011;63353;48.702;8.884;2023-01-25T09:36:42;29.40;;;14.30;;
74821;SDS011;63353;48.702;8.884;2023-01-25T09:39:11;27.57;;;14.23;;
74821;SDS011;63353;48.702;8.884;2023-01-25T09:47:00;28.93;;;13.53;;
74821;SDS011;63353;48.702;8.884;2023-01-25T09:54:45;29.23;;;15.07;;
74821;SDS011;63353;48.702;8.884;2023-01-25T09:57:24;29.00;;;14.33;;
74821;SDS011;63353;48.702;8.884;2023-01-25T09:59:52;31.00;;;15.47;;
74821;SDS011;63353;48.702;8.884;2023-01-25T10:05:20;28.67;;;15.17;;
74821;SDS011;63353;48.702;8.884;2023-01-25T10:11:11;28.00;;;14.90;;
74821;SDS011;63353;48.702;8.884;2023-01-25T10:13:52;30.43;;;14.50;;
74821;SDS011;63353;48.702;8.884;2023-01-25T10:22:21;29.50;;;14.10;;
74821;SDS011;63353;48.702;8.884;2023-01-25T10:28:08;28.07;;;13.87;;
74821;SDS011;63353;48.702;8.884;2023-01-25T10:31:15;32.63;;;14.97;;
74821;SDS011;63353;48.702;8.884;2023-01-25T10:33:50;29.27;;;13.97;;
74821;SDS011;63353;48.702;8.884;2023-01-25T10:36:20;30.63;;;14.53;;
74821;SDS011;63353;48.702;8.884;2023-01-25T10:38:51;30.00;;;14.80;;
74821;SDS011;63353;48.702;8.884;2023-01-25T10:43:59;28.13;;;13.90;;
74821;SDS011;63353;48.702;8.884;2023-01-25T10:46:45;29.57;;;14.87;;
74821;SDS011;63353;48.702;8.884;2023-01-25T10:49:22;28.07;;;14.83;;
74821;SDS011;63353;48.702;8.884;2023-01-25T10:51:52;33.07;;;15.67;;
74821;SDS011;63353;48.702;8.884;2023-01-25T10:54:46;29.20;;;14.03;;
74821;SDS011;63353;48.702;8.884;2023-01-25T10:57:17;30.03;;;15.67;;
74821;SDS011;63353;48.702;8.884;2023-01-25T10:59:54;27.47;;;14.30;;
74821;SDS011;63353;48.702;8.884;2023-01-25T11:08:24;27.60;;;14.77;;
74821;SDS011;63353;48.702;8.884;2023-01-25T11:13:49;27.47;;;14.50;;
74821;SDS011;63353;48.702;8.884;2023-01-25T11:16:33;28.10;;;14.60;;
74821;SDS011;63353;48.702;8.884;2023-01-25T11:19:01;33.33;;;17.00;;
74821;SDS011;63353;48.702;8.884;2023-01-25T11:21:52;35.23;;;19.60;;
74821;SDS011;63353;48.702;8.884;2023-01-25T11:24:19;33.20;;;16.13;;
74821;SDS011;63353;48.702;8.884;2023-01-25T11:27:10;30.80;;;16.30;;
74821;SDS011;63353;48.702;8.884;2023-01-25T11:32:38;31.83;;;15.73;;
74821;SDS011;63353;48.702;8.884;2023-01-25T11:35:16;29.03;;;15.23;;
74821;SDS011;63353;48.702;8.884;2023-01-25T11:40:48;30.93;;;16.83;;
74821;SDS011;63353;48.702;8.884;2023-01-25T12:01:09;26.57;;;14.17;;
74821;SDS011;63353;48.702;8.884;2023-01-25T12:07:21;26.97;;;13.40;;
74821;SDS011;63353;48.702;8.884;2023-01-25T12:18:01;27.83;;;14.63;;
74821;SDS011;63353;48.702;8.884;2023-01-25T12:23:35;36.27;;;18.60;;
74821;SDS011;63353;48.702;8.884;2023-01-25T12:26:15;35.50;;;20.33;;
74821;SDS011;63353;48.702;8.884;2023-01-25T12:31:44;28.63;;;14.87;;
74821;SDS011;63353;48.702;8.884;2023-01-25T12:34:29;33.77;;;19.13;;
74821;SDS011;63353;48.702;8.884;2023-01-25T12:39:44;28.20;;;15.87;;
74821;SDS011;63353;48.702;8.884;2023-01-25T12:45:08;28.87;;;14.20;;
74821;SDS011;63353;48.702;8.884;2023-01-25T12:47:43;28.23;;;15.43;;
74821;SDS011;63353;48.702;8.884;2023-01-25T12:50:16;30.17;;;14.37;;
74821;SDS011;63353;48.702;8.884;2023-01-25T12:53:09;33.67;;;16.37;;
74821;SDS011;63353;48.702;8.884;2023-01-25T12:55:43;30.63;;;14.97;;
74821;SDS011;63353;48.702;8.884;2023-01-25T12:58:38;30.47;;;16.33;;
74821;SDS011;63353;48.702;8.884;2023-01-25T13:01:15;30.13;;;14.80;;
74821;SDS011;63353;48.702;8.884;2023-01-25T13:04:13;31.93;;;15.73;;
74821;SDS011;63353;48.702;8.884;2023-01-25T13:12:49;32.63;;;15.07;;
74821;SDS011;63353;48.702;8.884;2023-01-25T13:15:42;30.90;;;15.37;;
74821;SDS011;63353;48.702;8.884;2023-01-25T13:21:02;32.60;;;15.20;;
74821;SDS011;63353;48.702;8.884;2023-01-25T13:23:36;30.43;;;14.93;;
74821;SDS011;63353;48.702;8.884;2023-01-25T13:28:49;30.60;;;15.30;;
74821;SDS011;63353;48.702;8.884;2023-01-25T13:39:45;28.03;;;14.73;;
74821;SDS011;63353;48.702;8.884;2023-01-25T13:42:19;30.00;;;15.50;;
74821;SDS011;63353;48.702;8.884;2023-01-25T13:44:57;31.43;;;14.43;;
74821;SDS011;63353;48.702;8.884;2023-01-25T13:47:27;33.93;;;15.90;;
74821;SDS011;63353;48.702;8.884;2023-01-25T13:50:29;29.93;;;14.63;;
74821;SDS011;63353;48.702;8.884;2023-01-25T13:53:04;29.17;;;15.60;;
74821;SDS011;63353;48.702;8.884;2023-01-25T13:55:46;37.23;;;17.10;;
74821;SDS011;63353;48.702;8.884;2023-01-25T13:58:17;35.63;;;16.53;;
74821;SDS011;63353;48.702;8.884;2023-01-25T14:03:50;32.77;;;15.60;;
74821;SDS011;63353;48.702;8.884;2023-01-25T14:06:21;32.50;;;15.30;;
74821;SDS011;63353;48.702;8.884;2023-01-25T14:09:16;36.10;;;16.80;;
74821;SDS011;63353;48.702;8.884;2023-01-25T14:14:33;37.47;;;17.13;;
74821;SDS011;63353;48.702;8.884;2023-01-25T14:17:00;36.17;;;17.80;;
74821;SDS011;63353;48.702;8.884;2023-01-25T14:19:45;35.47;;;17.47;;
74821;SDS011;63353;48.702;8.884;2023-01-25T14:22:28;37.60;;;18.23;;
74821;SDS011;63353;48.702;8.884;2023-01-25T14:27:26;38.97;;;19.57;;
74821;SDS011;63353;48.702;8.884;2023-01-25T14:29:54;38.27;;;20.30;;
74821;SDS011;63353;48.702;8.884;2023-01-25T14:32:26;35.97;;;17.47;;
74821;SDS011;63353;48.702;8.884;2023-01-25T14:34:52;32.83;;;16.57;;
74821;SDS011;63353;48.702;8.884;2023-01-25T14:37:18;35.87;;;17.83;;
74821;SDS011;63353;48.702;8.884;2023-01-25T14:39:48;33.67;;;16.73;;
74821;SDS011;63353;48.702;8.884;2023-01-25T14:42:15;38.70;;;18.27;;
74821;SDS011;63353;48.702;8.884;2023-01-25T14:44:48;34.93;;;17.03;;
74821;SDS011;63353;48.702;8.884;2023-01-25T14:49:47;35.30;;;16.83;;
74821;SDS011;63353;48.702;8.884;2023-01-25T14:52:13;37.57;;;18.07;;
74821;SDS011;63353;48.702;8.884;2023-01-25T14:57:40;43.77;;;20.00;;
74821;SDS011;63353;48.702;8.884;2023-01-25T15:00:19;40.13;;;18.07;;
74821;SDS011;63353;48.702;8.884;2023-01-25T15:03:06;48.30;;;23.13;;
74821;SDS011;63353;48.702;8.884;2023-01-25T15:05:43;36.67;;;17.67;;
74821;SDS011;63353;48.702;8.884;2023-01-25T15:08:15;37.57;;;17.93;;
74821;SDS011;63353;48.702;8.884;2023-01-25T15:11:00;40.73;;;18.10;;
74821;SDS011;63353;48.702;8.884;2023-01-25T15:13:45;49.47;;;24.13;;
74821;SDS011;63353;48.702;8.884;2023-01-25T15:16:11;46.27;;;19.30;;
74821;SDS011;63353;48.702;8.884;2023-01-25T15:18:50;40.57;;;17.83;;
74821;SDS011;63353;48.702;8.884;2023-01-25T15:21:31;37.40;;;17.17;;
74821;SDS011;63353;48.702;8.884;2023-01-25T15:23:59;44.20;;;19.90;;
74821;SDS011;63353;48.702;8.884;2023-01-25T15:26:33;40.53;;;18.17;;
74821;SDS011;63353;48.702;8.884;2023-01-25T15:29:13;38.07;;;17.20;;
74821;SDS011;63353;48.702;8.884;2023-01-25T15:31:50;41.37;;;18.00;;
74821;SDS011;63353;48.702;8.884;2023-01-25T15:34:18;35.73;;;18.10;;
74821;SDS011;63353;48.702;8.884;2023-01-25T15:36:48;35.40;;;16.90;;
74821;SDS011;63353;48.702;8.884;2023-01-25T15:39:15;41.40;;;17.40;;
74821;SDS011;63353;48.702;8.884;2023-01-25T15:41:46;38.00;;;17.57;;
74821;SDS011;63353;48.702;8.884;2023-01-25T15:44:15;39.73;;;19.67;;
74821;SDS011;63353;48.702;8.884;2023-01-25T15:46:44;55.03;;;24.57;;
74821;SDS011;63353;48.702;8.884;2023-01-25T15:49:26;43.07;;;19.90;;
74821;SDS011;63353;48.702;8.884;2023-01-25T15:51:55;56.63;;;28.97;;
74821;SDS011;63353;48.702;8.884;2023-01-25T15:54:30;44.73;;;22.10;;
74821;SDS011;63353;48.702;8.884;2023-01-25T15:56:56;60.00;;;29.93;;
74821;SDS011;63353;48.702;8.884;2023-01-25T15:59:25;71.53;;;34.47;;
74821;SDS011;63353;48.702;8.884;2023-01-25T16:01:52;52.93;;;25.43;;
74821;SDS011;63353;48.702;8.884;2023-01-25T16:04:23;73.63;;;35.13;;
74821;SDS011;63353;48.702;8.884;2023-01-25T16:06:50;40.57;;;20.03;;
74821;SDS011;63353;48.702;8.884;2023-01-25T16:11:51;42.83;;;19.23;;
74821;SDS011;63353;48.702;8.884;2023-01-25T16:14:18;45.07;;;20.03;;
74821;SDS011;63353;48.702;8.884;2023-01-25T16:16:48;43.73;;;19.37;;
74821;SDS011;63353;48.702;8.884;2023-01-25T16:19:16;44.70;;;21.20;;
74821;SDS011;63353;48.702;8.884;2023-01-25T16:21:44;40.03;;;18.60;;
74821;SDS011;63353;48.702;8.884;2023-01-25T16:24:10;38.10;;;17.33;;
74821;SDS011;63353;48.702;8.884;2023-01-25T16:26:39;36.63;;;17.17;;
74821;SDS011;63353;48.702;8.884;2023-01-25T16:29:13;41.27;;;18.53;;
74821;SDS011;63353;48.702;8.884;2023-01-25T16:31:42;44.13;;;20.07;;
74821;SDS011;63353;48.702;8.884;2023-01-25T16:34:07;38.57;;;19.30;;
74821;SDS011;63353;48.702;8.884;2023-01-25T16:36:33;44.63;;;20.90;;
74821;SDS011;63353;48.702;8.884;2023-01-25T16:39:06;47.17;;;20.90;;
74821;SDS011;63353;48.702;8.884;2023-01-25T16:41:58;50.20;;;22.27;;
74821;SDS011;63353;48.702;8.884;2023-01-25T16:44:27;45.47;;;21.53;;
74821;SDS011;63353;48.702;8.884;2023-01-25T16:46:55;45.73;;;20.77;;
74821;SDS011;63353;48.702;8.884;2023-01-25T16:49:22;44.90;;;20.37;;
74821;SDS011;63353;48.702;8.884;2023-01-25T16:51:54;44.07;;;20.17;;
74821;SDS011;63353;48.702;8.884;2023-01-25T16:54:20;43.10;;;20.03;;
74821;SDS011;63353;48.702;8.884;2023-01-25T16:56:50;44.87;;;19.83;;
74821;SDS011;63353;48.702;8.884;2023-01-25T16:59:17;39.70;;;18.37;;
74821;SDS011;63353;48.702;8.884;2023-01-25T17:01:44;86.77;;;37.57;;
74821;SDS011;63353;48.702;8.884;2023-01-25T17:04:10;50.53;;;23.50;;